1T7 weather

Kestrel Airpark
San Antonio, Texas, United States

Public forecast

Using degrees Fahrenheit for public forecast. Weather courtesy of forecast.io.

Closest aviation weather report (METAR) to Kestrel Airpark

Closest report is Boerne Stage Field, 15.0 nm (27.8 km) WSW. Retrieved 2020/08/05 18:35 UTC (0 seconds ago):

K5C1 051835Z AUTO 20009G15KT 10SM CLR 32/16 A3005 RMK AO1

Closest aviation forecast (TAF) to Kestrel Airpark

Closest forecast is San Antonio International Airport, 16.9 nm (31.3 km) S. Retrieved 2020/08/05 18:24 UTC (11 minutes ago):

TAF KSAT 051722Z 0518/0624 17008KT P6SM FEW250 FM061000 20007KT P6SM BKN011 FM061500 20007KT P6SM SCT030